createdAt,value
2017-11-01T00:02:21.271Z,63.10
2017-11-01T00:04:49.895Z,63.10
2017-11-01T00:09:47.739Z,62.80
2017-11-01T00:12:15.230Z,62.90
2017-11-01T00:14:42.732Z,63.10
2017-11-01T00:17:10.233Z,63.10
2017-11-01T00:19:37.731Z,63.10
2017-11-01T00:22:05.619Z,63.10
2017-11-01T00:24:33.891Z,63.70
2017-11-01T00:27:01.400Z,63.20
2017-11-01T00:29:29.291Z,63.20
2017-11-01T00:31:57.932Z,63.00
2017-11-01T00:34:25.440Z,63.10
2017-11-01T00:36:53.709Z,63.80
2017-11-01T00:39:21.975Z,63.10
2017-11-01T00:41:49.591Z,63.20
2017-11-01T00:44:18.220Z,63.30
2017-11-01T00:46:46.110Z,63.40
2017-11-01T00:49:15.118Z,63.40
2017-11-01T00:51:42.615Z,63.60
2017-11-01T00:54:10.507Z,63.60
2017-11-01T00:56:38.003Z,63.70
2017-11-01T00:59:05.490Z,63.80
2017-11-01T01:01:32.988Z,63.90
2017-11-01T01:04:00.501Z,64.10
2017-11-01T01:06:27.992Z,64.20
2017-11-01T01:08:55.484Z,64.10
2017-11-01T01:11:23.754Z,64.10
2017-11-01T01:13:51.266Z,64.10
2017-11-01T01:16:18.784Z,63.90
2017-11-01T01:18:46.679Z,63.80
2017-11-01T01:21:14.967Z,64.40
2017-11-01T01:23:42.467Z,63.80
2017-11-01T01:26:10.764Z,63.80
2017-11-01T01:28:38.262Z,63.90
2017-11-01T01:31:05.771Z,63.80
2017-11-01T01:33:33.275Z,63.80
2017-11-01T01:36:00.792Z,63.60
2017-11-01T01:38:29.057Z,63.60
2017-11-01T01:40:56.972Z,63.80
2017-11-01T01:43:25.606Z,63.90
2017-11-01T01:45:53.903Z,64.00
2017-11-01T01:48:22.185Z,63.80
2017-11-01T01:50:49.702Z,63.90
2017-11-01T01:53:18.698Z,64.60
2017-11-01T01:58:15.063Z,64.00
2017-11-01T02:00:43.335Z,64.70
2017-11-01T02:03:11.231Z,64.20
2017-11-01T02:05:38.728Z,64.20
2017-11-01T02:08:07.727Z,64.70
2017-11-01T02:10:35.230Z,64.30
2017-11-01T02:15:33.088Z,64.20
2017-11-01T02:18:00.579Z,64.20
2017-11-01T02:20:28.078Z,64.20
2017-11-01T02:22:57.080Z,64.00
2017-11-01T02:25:24.583Z,64.00
2017-11-01T02:27:52.080Z,63.80
2017-11-01T02:30:20.338Z,63.80
2017-11-01T02:32:48.228Z,63.80
2017-11-01T02:35:16.133Z,64.00
2017-11-01T02:37:45.143Z,64.00
2017-11-01T02:40:13.036Z,63.80
2017-11-01T02:42:41.295Z,64.50
2017-11-01T02:45:08.785Z,63.90
2017-11-01T02:47:37.057Z,63.90
2017-11-01T02:50:04.552Z,64.00
2017-11-01T02:52:32.048Z,64.20
2017-11-01T02:55:00.679Z,64.00
2017-11-01T02:59:57.023Z,63.70
2017-11-01T03:02:28.375Z,63.60
2017-11-01T03:04:55.867Z,63.60
2017-11-01T03:07:23.374Z,63.70
2017-11-01T03:09:51.654Z,64.40
2017-11-01T03:12:19.180Z,63.90
2017-11-01T03:14:46.679Z,64.30
2017-11-01T03:17:14.578Z,64.30
2017-11-01T03:19:42.062Z,64.20
2017-11-01T03:22:09.574Z,64.20
2017-11-01T03:24:42.883Z,64.40
2017-11-01T03:27:10.400Z,64.50
2017-11-01T03:29:37.903Z,64.40
2017-11-01T03:32:05.421Z,64.60
2017-11-01T03:34:32.930Z,64.70
2017-11-01T03:37:00.451Z,64.60
2017-11-01T03:39:29.456Z,64.50
2017-11-01T03:41:56.973Z,64.70
2017-11-01T03:44:24.478Z,64.70
2017-11-01T03:46:52.780Z,64.50
2017-11-01T03:49:21.039Z,64.50
2017-11-01T03:51:49.682Z,64.50
2017-11-01T03:54:17.176Z,64.60
2017-11-01T03:56:45.459Z,65.00
2017-11-01T03:59:13.347Z,64.90
2017-11-01T04:01:41.266Z,65.10
2017-11-01T04:04:08.772Z,64.90
2017-11-01T04:06:37.787Z,64.90
2017-11-01T04:09:06.779Z,64.80
2017-11-01T04:11:34.303Z,64.70
2017-11-01T04:14:01.796Z,64.90
2017-11-01T04:16:30.057Z,64.70
2017-11-01T04:19:03.281Z,64.70
2017-11-01T04:21:30.770Z,64.50
2017-11-01T04:26:27.119Z,64.60
2017-11-01T04:28:55.011Z,64.50
2017-11-01T04:31:22.504Z,64.60
2017-11-01T04:33:49.994Z,64.50
2017-11-01T04:36:17.487Z,64.70
2017-11-01T04:38:44.979Z,64.40
2017-11-01T04:41:12.480Z,64.40
2017-11-01T04:43:40.742Z,65.00
2017-11-01T04:46:09.008Z,64.30
2017-11-01T04:48:38.015Z,64.00
2017-11-01T04:51:10.432Z,63.90
2017-11-01T04:53:37.932Z,64.20
2017-11-01T04:56:06.196Z,64.70
2017-11-01T04:58:36.541Z,64.20
2017-11-01T05:01:04.431Z,64.30
2017-11-01T05:03:31.931Z,64.40
2017-11-01T05:05:59.430Z,64.50
2017-11-01T05:08:32.519Z,64.40
2017-11-01T05:11:05.622Z,64.50
2017-11-01T05:13:35.033Z,64.50
2017-11-01T05:16:03.369Z,64.40
2017-11-01T05:18:30.888Z,64.30
2017-11-01T05:20:58.385Z,64.20
2017-11-01T05:23:25.905Z,64.20
2017-11-01T05:25:54.999Z,64.20
2017-11-01T05:28:22.523Z,64.10
2017-11-01T05:30:50.424Z,64.10
2017-11-01T05:35:47.567Z,64.10
2017-11-01T05:38:15.080Z,64.00
2017-11-01T05:40:43.712Z,64.60
2017-11-01T05:43:11.224Z,64.10
2017-11-01T05:48:08.440Z,64.10
2017-11-01T05:50:37.431Z,64.20
2017-11-01T05:53:05.360Z,64.00
2017-11-01T05:55:32.863Z,63.80
2017-11-01T05:58:00.377Z,64.00
2017-11-01T06:00:28.277Z,64.10
2017-11-01T06:02:55.804Z,64.10
2017-11-01T06:05:23.303Z,64.20
2017-11-01T06:07:50.820Z,64.20
2017-11-01T06:10:18.316Z,64.10
2017-11-01T06:12:45.836Z,64.10
2017-11-01T06:15:14.840Z,64.70
2017-11-01T06:17:43.120Z,64.10
2017-11-01T06:20:11.592Z,64.80
2017-11-01T06:22:39.503Z,64.10
2017-11-01T06:25:08.527Z,64.20
2017-11-01T06:27:36.826Z,64.00
2017-11-01T06:30:05.080Z,64.70
2017-11-01T06:32:32.906Z,64.00
2017-11-01T06:35:00.407Z,64.10
2017-11-01T06:37:28.683Z,64.90
2017-11-01T06:39:56.959Z,65.00
2017-11-01T06:44:53.728Z,64.40
2017-11-01T06:47:21.234Z,64.70
2017-11-01T06:49:50.235Z,65.30
2017-11-01T06:52:17.729Z,64.70
2017-11-01T06:54:45.240Z,64.70
2017-11-01T06:57:14.278Z,65.00
2017-11-01T07:02:10.627Z,64.30
2017-11-01T07:04:38.124Z,64.30
2017-11-01T07:07:05.620Z,64.10
2017-11-01T07:09:35.910Z,64.10
2017-11-01T07:12:03.404Z,64.10
2017-11-01T07:14:30.941Z,64.30
2017-11-01T07:16:59.207Z,64.20
2017-11-01T07:19:27.484Z,64.90
2017-11-01T07:21:54.992Z,64.30
2017-11-01T07:24:23.285Z,64.30
2017-11-01T07:26:50.774Z,64.50
2017-11-01T07:29:19.429Z,64.40
2017-11-01T07:31:46.920Z,64.40
2017-11-01T07:34:14.432Z,64.40
2017-11-01T07:36:42.327Z,64.20
2017-11-01T07:39:09.843Z,64.30
2017-11-01T07:41:37.350Z,64.40
2017-11-01T07:44:04.872Z,64.60
2017-11-01T07:46:32.363Z,64.70
2017-11-01T07:48:59.875Z,64.70
2017-11-01T07:51:27.363Z,64.90
2017-11-01T07:56:23.728Z,65.30
2017-11-01T07:58:52.008Z,65.50
2017-11-01T08:01:21.003Z,65.60
2017-11-01T08:03:48.532Z,65.90
2017-11-01T08:06:16.457Z,66.10
2017-11-01T08:08:43.979Z,66.30
2017-11-01T08:11:11.488Z,66.40
2017-11-01T08:13:39.040Z,66.40
2017-11-01T08:16:07.315Z,66.70
2017-11-01T08:18:35.600Z,67.20
2017-11-01T08:21:03.868Z,67.30
2017-11-01T08:23:32.893Z,66.50
2017-11-01T08:26:00.392Z,66.70
2017-11-01T08:28:29.990Z,66.70
2017-11-01T08:30:57.492Z,67.00
2017-11-01T08:33:25.400Z,66.80
2017-11-01T08:35:52.910Z,67.10
2017-11-01T08:38:21.943Z,66.80
2017-11-01T08:40:49.443Z,67.10
2017-11-01T08:43:17.331Z,67.30
2017-11-01T08:45:44.830Z,67.30
2017-11-01T08:50:41.580Z,67.20
2017-11-01T08:53:09.080Z,67.10
2017-11-01T08:55:36.579Z,67.10
2017-11-01T08:58:04.897Z,67.10
2017-11-01T09:00:33.438Z,67.00
2017-11-01T09:05:31.611Z,66.60
2017-11-01T09:07:59.519Z,66.70
2017-11-01T09:10:27.043Z,66.90
2017-11-01T09:12:54.583Z,66.80
2017-11-01T09:15:22.502Z,66.70
2017-11-01T09:17:49.991Z,66.70
2017-11-01T09:20:17.503Z,66.60
2017-11-01T09:22:46.526Z,66.60
2017-11-01T09:25:14.052Z,66.80
2017-11-01T09:27:43.114Z,67.10
2017-11-01T09:30:10.644Z,66.20
2017-11-01T09:32:38.156Z,66.40
2017-11-01T09:35:05.679Z,66.40
2017-11-01T09:37:33.177Z,66.30
2017-11-01T09:40:00.881Z,65.90
2017-11-01T09:42:28.405Z,65.90
2017-11-01T09:44:55.923Z,66.10
2017-11-01T09:47:23.828Z,66.10
2017-11-01T09:49:52.110Z,66.00
2017-11-01T09:52:19.604Z,65.70
2017-11-01T09:54:47.878Z,65.50
2017-11-01T09:57:15.389Z,65.30
2017-11-01T09:59:42.912Z,65.20
2017-11-01T10:02:11.196Z,65.80
2017-11-01T10:04:39.489Z,64.80
2017-11-01T10:07:08.149Z,65.30
2017-11-01T10:09:36.085Z,64.60
2017-11-01T10:12:03.591Z,64.90
2017-11-01T10:14:31.135Z,64.90
2017-11-01T10:17:00.738Z,64.90
2017-11-01T10:19:28.281Z,64.90
2017-11-01T10:24:24.663Z,64.30
2017-11-01T10:26:53.295Z,65.00
2017-11-01T10:29:21.587Z,64.80
2017-11-01T10:31:49.082Z,64.30
2017-11-01T10:34:16.610Z,64.40
2017-11-01T10:36:45.263Z,63.60
2017-11-01T10:39:13.548Z,64.60
2017-11-01T10:41:41.864Z,63.90
2017-11-01T10:44:09.384Z,64.10
2017-11-01T10:46:38.035Z,64.00
2017-11-01T10:49:05.551Z,63.10
2017-11-01T10:51:33.819Z,62.60
2017-11-01T10:54:02.864Z,62.30
2017-11-01T10:56:31.264Z,62.80
2017-11-01T10:58:59.259Z,61.90
2017-11-01T11:06:25.239Z,62.60
2017-11-01T11:08:52.761Z,61.50
2017-11-01T11:11:20.283Z,61.50
2017-11-01T11:13:47.787Z,61.50
2017-11-01T11:16:16.084Z,61.70
2017-11-01T11:18:43.585Z,61.90
2017-11-01T11:21:11.108Z,61.70
2017-11-01T11:23:38.799Z,61.60
2017-11-01T11:26:06.461Z,61.40
2017-11-01T11:28:33.993Z,61.20
2017-11-01T11:31:01.525Z,61.20
2017-11-01T11:33:29.790Z,61.30
2017-11-01T11:35:58.093Z,61.60
2017-11-01T11:38:27.100Z,60.40
2017-11-01T11:40:54.632Z,60.40
2017-11-01T11:43:23.270Z,60.40
2017-11-01T11:45:50.805Z,59.60
2017-11-01T11:48:18.368Z,57.90
2017-11-01T11:50:45.909Z,59.90
2017-11-01T11:53:13.421Z,60.20
2017-11-01T11:55:42.075Z,59.50
2017-11-01T11:58:11.096Z,59.60
2017-11-01T12:00:38.627Z,59.30
2017-11-01T12:03:06.151Z,59.60
2017-11-01T12:05:33.696Z,59.10
2017-11-01T12:08:02.709Z,59.50
2017-11-01T12:10:30.640Z,59.50
2017-11-01T12:15:27.622Z,59.30
2017-11-01T12:17:55.901Z,58.50
2017-11-01T12:20:23.425Z,58.60
2017-11-01T12:22:50.996Z,59.10
2017-11-01T12:25:18.919Z,58.90
2017-11-01T12:27:47.330Z,58.70
2017-11-01T12:30:14.849Z,58.90
2017-11-01T12:32:42.871Z,59.10
2017-11-01T12:35:10.379Z,59.20
2017-11-01T12:37:37.887Z,59.30
2017-11-01T12:40:05.419Z,59.50
2017-11-01T12:42:32.939Z,59.30
2017-11-01T12:45:00.535Z,59.40
2017-11-01T12:47:28.054Z,59.30
2017-11-01T12:49:55.657Z,59.20
2017-11-01T12:52:23.179Z,59.00
2017-11-01T12:54:52.188Z,58.90
2017-11-01T12:59:48.536Z,59.10
2017-11-01T13:02:16.038Z,58.90
2017-11-01T13:04:43.539Z,59.30
2017-11-01T13:07:11.100Z,59.30
2017-11-01T13:09:38.768Z,59.10
2017-11-01T13:12:06.279Z,59.10
2017-11-01T13:14:34.363Z,59.10
2017-11-01T13:17:02.632Z,59.90
2017-11-01T13:19:30.911Z,60.00
2017-11-01T13:21:59.294Z,60.00
2017-11-01T13:26:55.707Z,59.50
2017-11-01T13:29:23.226Z,59.50
2017-11-01T13:31:50.760Z,59.60
2017-11-01T13:34:18.254Z,59.70
2017-11-01T13:36:46.687Z,59.70
2017-11-01T13:39:14.355Z,59.50
2017-11-01T13:41:41.855Z,59.60
2017-11-01T13:44:09.472Z,59.50
2017-11-01T13:46:36.966Z,59.40
2017-11-01T13:49:05.243Z,59.30
2017-11-01T13:51:34.450Z,59.30
2017-11-01T13:54:02.156Z,59.30
2017-11-01T13:58:58.657Z,59.40
2017-11-01T14:01:26.359Z,59.70
2017-11-01T14:03:53.862Z,59.70
2017-11-01T14:06:21.370Z,59.50
2017-11-01T14:11:17.787Z,59.90
2017-11-01T14:13:45.464Z,60.00
2017-11-01T14:16:12.976Z,59.50
2017-11-01T14:18:41.255Z,59.70
2017-11-01T14:21:08.788Z,59.60
2017-11-01T14:23:36.298Z,59.70
2017-11-01T14:28:32.881Z,59.30
2017-11-01T14:31:01.157Z,60.20
2017-11-01T14:33:29.420Z,59.80
2017-11-01T14:35:57.324Z,59.80
2017-11-01T14:38:24.843Z,59.50
2017-11-01T14:40:52.368Z,59.30
2017-11-01T14:43:19.887Z,59.30
2017-11-01T14:45:48.177Z,59.50
2017-11-01T14:48:16.457Z,60.10
2017-11-01T14:53:12.820Z,59.50
2017-11-01T14:55:41.150Z,59.60
2017-11-01T14:58:08.678Z,59.60
2017-11-01T15:03:05.051Z,59.90
2017-11-01T15:05:32.553Z,60.00
2017-11-01T15:08:00.829Z,60.00
2017-11-01T15:10:28.349Z,59.70
2017-11-01T15:12:56.626Z,60.40
2017-11-01T15:15:24.534Z,59.30
2017-11-01T15:17:52.980Z,59.30
2017-11-01T15:20:20.910Z,58.80
2017-11-01T15:22:49.182Z,59.20
2017-11-01T15:25:16.675Z,59.60
2017-11-01T15:27:44.576Z,59.30
2017-11-01T15:30:12.859Z,59.30
2017-11-01T15:35:09.223Z,59.90
2017-11-01T15:37:36.730Z,60.30
2017-11-01T15:40:04.637Z,60.70
2017-11-01T15:45:01.012Z,61.00
2017-11-01T15:47:29.667Z,61.10
2017-11-01T15:49:57.563Z,61.00
2017-11-01T15:52:25.130Z,61.30
2017-11-01T15:54:53.412Z,61.40
2017-11-01T15:57:21.138Z,61.50
2017-11-01T15:59:49.410Z,62.10
2017-11-01T16:02:17.688Z,62.20
2017-11-01T16:04:46.710Z,61.60
2017-11-01T16:07:14.221Z,61.60
2017-11-01T16:09:41.824Z,61.70
2017-11-01T16:12:09.327Z,62.00
2017-11-01T16:14:38.340Z,62.00
2017-11-01T16:19:34.884Z,61.50
2017-11-01T16:22:02.392Z,62.00
2017-11-01T16:24:30.299Z,62.20
2017-11-01T16:26:58.575Z,63.10
2017-11-01T16:29:26.844Z,62.50
2017-11-01T16:31:55.258Z,63.30
2017-11-01T16:34:23.319Z,62.70
2017-11-01T16:36:51.383Z,62.70
2017-11-01T16:39:19.276Z,62.70
2017-11-01T16:41:46.779Z,62.70
2017-11-01T16:44:15.790Z,62.70
2017-11-01T16:46:43.696Z,63.00
2017-11-01T16:49:11.963Z,64.00
2017-11-01T16:51:39.467Z,64.00
2017-11-01T16:54:08.263Z,64.10
2017-11-01T16:56:35.777Z,64.20
2017-11-01T16:59:03.260Z,64.10
2017-11-01T17:01:31.540Z,64.60
2017-11-01T17:06:28.700Z,64.90
2017-11-01T17:08:57.495Z,64.30
2017-11-01T17:11:25.032Z,64.30
2017-11-01T17:13:53.669Z,64.40
2017-11-01T17:16:21.172Z,64.50
2017-11-01T17:18:49.805Z,64.70
2017-11-01T17:21:17.311Z,64.90
2017-11-01T17:23:45.719Z,65.60
2017-11-01T17:26:13.224Z,65.20
2017-11-01T17:28:41.137Z,65.60
2017-11-01T17:31:08.652Z,65.80
2017-11-01T17:33:36.168Z,65.60
2017-11-01T17:36:03.674Z,65.50
2017-11-01T17:38:32.697Z,65.20
2017-11-01T17:41:08.779Z,64.90
2017-11-01T17:43:49.797Z,64.80
2017-11-01T17:46:21.634Z,65.00
2017-11-01T17:48:50.761Z,64.90
2017-11-01T17:51:23.173Z,64.80
2017-11-01T17:53:55.319Z,65.00
2017-11-01T17:56:26.893Z,65.20
2017-11-01T17:59:00.478Z,65.20
2017-11-01T18:01:29.583Z,65.40
2017-11-01T18:04:00.934Z,65.50
2017-11-01T18:06:31.364Z,65.70
2017-11-01T18:08:59.259Z,65.90
2017-11-01T18:11:26.911Z,65.70
2017-11-01T18:13:54.407Z,65.70
2017-11-01T18:16:21.895Z,65.70
2017-11-01T18:18:49.901Z,65.50
2017-11-01T18:21:18.177Z,65.30
2017-11-01T18:23:45.835Z,65.50
2017-11-01T18:26:13.330Z,65.70
2017-11-01T18:28:41.363Z,65.40
2017-11-01T18:31:08.863Z,65.30
2017-11-01T18:33:36.469Z,65.30
2017-11-01T18:36:03.973Z,65.30
2017-11-01T18:38:32.249Z,65.20
2017-11-01T18:40:59.746Z,65.20
2017-11-01T18:45:56.130Z,65.20
2017-11-01T18:48:24.070Z,65.20
2017-11-01T18:50:51.572Z,65.10
2017-11-01T18:53:19.067Z,65.20
2017-11-01T18:55:46.955Z,65.30
2017-11-01T18:58:14.438Z,65.30
2017-11-01T19:00:41.936Z,65.30
2017-11-01T19:03:09.599Z,65.30
2017-11-01T19:05:37.257Z,64.90
2017-11-01T19:08:04.932Z,64.80
2017-11-01T19:10:32.438Z,64.90
2017-11-01T19:13:00.735Z,65.60
2017-11-01T19:15:28.996Z,65.60
2017-11-01T19:17:57.277Z,65.80
2017-11-01T19:20:26.281Z,65.30
2017-11-01T19:22:54.199Z,65.60
2017-11-01T19:25:22.467Z,65.80
2017-11-01T19:27:49.984Z,65.90
2017-11-01T19:32:46.491Z,65.50
2017-11-01T19:35:15.133Z,65.50
2017-11-01T19:37:42.648Z,65.50
2017-11-01T19:42:39.431Z,65.60
2017-11-01T19:45:07.706Z,65.70
2017-11-01T19:47:35.228Z,65.40
2017-11-01T19:50:02.739Z,65.50
2017-11-01T19:52:30.266Z,65.60
2017-11-01T19:54:59.287Z,65.60
2017-11-01T19:57:26.817Z,65.60
2017-11-01T19:59:54.337Z,65.70
2017-11-01T20:02:21.851Z,65.60
2017-11-01T20:04:49.352Z,65.60
2017-11-01T20:07:16.875Z,65.40
2017-11-01T20:09:44.367Z,65.30
2017-11-01T20:12:11.960Z,65.50
2017-11-01T20:14:39.467Z,65.40
2017-11-01T20:17:07.744Z,66.20
2017-11-01T20:19:35.264Z,65.70
2017-11-01T20:24:31.626Z,65.60
2017-11-01T20:26:59.123Z,65.70
2017-11-01T20:29:27.375Z,65.70
2017-11-01T20:31:55.264Z,65.40
2017-11-01T20:34:23.541Z,65.30
2017-11-01T20:36:51.047Z,65.40
2017-11-01T20:39:19.691Z,65.50
2017-11-01T20:41:47.187Z,65.80
2017-11-01T20:44:14.687Z,65.70
2017-11-01T20:46:42.218Z,65.70
2017-11-01T20:49:09.721Z,65.70
2017-11-01T20:51:37.224Z,65.80
2017-11-01T20:54:04.725Z,65.90
2017-11-01T20:56:32.616Z,65.90
2017-11-01T20:59:00.132Z,65.80
2017-11-01T21:01:29.137Z,65.70
2017-11-01T21:03:56.632Z,65.70
2017-11-01T21:08:52.982Z,65.70
2017-11-01T21:11:21.986Z,65.40
2017-11-01T21:13:49.483Z,65.30
2017-11-01T21:16:16.984Z,65.40
2017-11-01T21:18:44.486Z,65.50
2017-11-01T21:21:11.991Z,65.70
2017-11-01T21:23:39.487Z,65.60
2017-11-01T21:26:07.384Z,65.70
2017-11-01T21:28:34.876Z,65.50
2017-11-01T21:31:02.859Z,65.50
2017-11-01T21:33:31.136Z,65.40
2017-11-01T21:35:58.633Z,65.20
2017-11-01T21:40:55.026Z,65.20
2017-11-01T21:45:51.419Z,65.20
2017-11-01T21:48:19.708Z,65.40
2017-11-01T21:50:47.974Z,66.10
2017-11-01T21:55:44.352Z,65.70
2017-11-01T21:58:13.012Z,65.70
2017-11-01T22:00:40.507Z,65.80
2017-11-01T22:03:08.801Z,65.80
2017-11-01T22:05:36.299Z,65.60
2017-11-01T22:08:05.329Z,65.50
2017-11-01T22:10:32.826Z,65.40
2017-11-01T22:13:00.351Z,65.50
2017-11-01T22:15:27.878Z,65.30
2017-11-01T22:17:55.404Z,65.30
2017-11-01T22:20:23.666Z,65.80
2017-11-01T22:22:51.167Z,65.00
2017-11-01T22:25:18.660Z,65.30
2017-11-01T22:27:46.156Z,65.30
2017-11-01T22:30:14.427Z,65.30
2017-11-01T22:32:41.918Z,65.40
2017-11-01T22:37:38.276Z,65.30
2017-11-01T22:40:07.287Z,65.30
2017-11-01T22:42:34.833Z,65.10
2017-11-01T22:45:02.337Z,65.20
2017-11-01T22:47:29.832Z,65.40
2017-11-01T22:49:57.323Z,65.40
2017-11-01T22:52:25.579Z,65.90
2017-11-01T22:54:54.209Z,65.50
2017-11-01T22:57:21.707Z,65.60
2017-11-01T22:59:49.200Z,65.80
2017-11-01T23:02:16.707Z,66.30
2017-11-01T23:04:44.217Z,66.40
2017-11-01T23:07:11.724Z,66.60
2017-11-01T23:09:39.216Z,66.80
2017-11-01T23:12:06.715Z,66.80
2017-11-01T23:14:34.229Z,67.00
2017-11-01T23:17:01.719Z,67.40
2017-11-01T23:19:29.610Z,67.40
2017-11-01T23:21:57.112Z,68.10
2017-11-01T23:24:24.612Z,68.30
2017-11-01T23:26:52.111Z,68.50
2017-11-01T23:29:20.395Z,68.70
2017-11-01T23:31:47.892Z,68.40
2017-11-01T23:34:15.424Z,68.20
2017-11-01T23:36:42.944Z,68.10
2017-11-01T23:39:11.226Z,68.80
2017-11-01T23:41:38.719Z,68.50
2017-11-01T23:44:06.245Z,68.50
2017-11-01T23:46:33.742Z,68.40
2017-11-01T23:49:01.266Z,68.60
2017-11-01T23:51:28.772Z,69.10
2017-11-01T23:53:56.291Z,69.10
2017-11-01T23:56:23.875Z,69.00
2017-11-01T23:58:51.389Z,68.90
